Time;durP1;ratioP1;P1;durP2;ratioP2;P2;SDS_P1;SDS_P2;PMS_P1;PMS_P2;Temp;Humidity;BMP_temperature;BMP_pressure;BME280_temperature;BME280_humidity;BME280_pressure;Samples;Min_cycle;Max_cycle;Signal;HPM_P1;HPM_P2
2023/06/02 00:02:08;;;;;;;15.02;2.28;;;;;;;;;;6287592;22;20496;-94
2023/06/02 00:04:35;;;;;;;11.27;2.30;;;;;;;;;;6283403;22;20011;-93
2023/06/02 00:07:04;;;;;;;15.48;2.22;;;;;;;;;;6310937;22;20060;-94
2023/06/02 00:09:32;;;;;;;20.85;3.33;;;;;;;;;;6284946;22;20003;-93
2023/06/02 00:11:59;;;;;;;13.30;2.58;;;;;;;;;;6309096;22;20064;-92
2023/06/02 00:14:26;;;;;;;15.45;2.28;;;;;;;;;;6310874;22;20007;-93
2023/06/02 00:16:55;;;;;;;16.20;2.78;;;;;;;;;;6286096;22;20044;-93
2023/06/02 00:19:23;;;;;;;19.35;3.25;;;;;;;;;;6284701;22;20430;-93
2023/06/02 00:21:51;;;;;;;19.05;2.72;;;;;;;;;;6284131;22;20007;-93
2023/06/02 00:24:20;;;;;;;17.95;3.47;;;;;;;;;;6337700;22;20390;-93
2023/06/02 00:26:49;;;;;;;18.55;3.47;;;;;;;;;;6282585;22;20007;-92
2023/06/02 00:29:15;;;;;;;22.80;3.83;;;;;;;;;;6283977;22;20283;-93
2023/06/02 00:31:42;;;;;;;25.02;3.20;;;;;;;;;;6283775;22;20093;-93
2023/06/02 00:34:08;;;;;;;16.48;2.55;;;;;;;;;;6283374;22;20458;-94
2023/06/02 00:36:34;;;;;;;22.10;2.58;;;;;;;;;;6309253;22;19999;-93
2023/06/02 00:39:00;;;;;;;28.10;5.38;;;;;;;;;;6284591;22;20011;-94
2023/06/02 00:41:28;;;;;;;14.48;2.85;;;;;;;;;;6285434;22;20340;-93
2023/06/02 00:43:54;;;;;;;15.38;2.60;;;;;;;;;;6308367;22;20301;-94
2023/06/02 00:46:20;;;;;;;14.18;2.65;;;;;;;;;;6315413;22;20010;-93
2023/06/02 00:48:48;;;;;;;17.85;3.47;;;;;;;;;;6315472;22;20036;-94
2023/06/02 00:51:15;;;;;;;14.93;2.65;;;;;;;;;;6342206;22;20057;-93
2023/06/02 00:53:41;;;;;;;20.70;3.10;;;;;;;;;;6343526;22;20007;-94
2023/06/02 00:56:07;;;;;;;15.65;3.42;;;;;;;;;;6318297;22;20550;-94
2023/06/02 00:58:37;;;;;;;14.98;2.83;;;;;;;;;;6317144;22;20010;-92
2023/06/02 01:01:08;;;;;;;18.83;3.10;;;;;;;;;;6317844;22;20066;-94
2023/06/02 01:03:43;;;;;;;22.33;3.22;;;;;;;;;;6344184;22;20028;-94
2023/06/02 01:06:13;;;;;;;17.10;2.95;;;;;;;;;;6341411;22;20032;-94
2023/06/02 01:08:40;;;;;;;19.30;2.90;;;;;;;;;;6343530;22;20006;-94
2023/06/02 01:11:07;;;;;;;21.42;3.08;;;;;;;;;;6342492;22;20400;-93
2023/06/02 01:13:34;;;;;;;15.13;2.35;;;;;;;;;;6339122;22;20432;-94
2023/06/02 01:16:01;;;;;;;10.90;4.03;;;;;;;;;;6314898;22;20021;-93
2023/06/02 01:18:29;;;;;;;12.93;2.30;;;;;;;;;;6313423;22;20018;-93
2023/06/02 01:20:59;;;;;;;21.15;2.83;;;;;;;;;;6340508;22;20010;-94
2023/06/02 01:23:33;;;;;;;18.10;2.78;;;;;;;;;;6339394;22;20425;-92
2023/06/02 01:26:01;;;;;;;;;;;;;;;;;;6370009;22;20011;-93
2023/06/02 01:28:27;;;;;;;19.88;3.15;;;;;;;;;;6340676;22;19917;-93
2023/06/02 01:30:58;;;;;;;13.00;2.80;;;;;;;;;;6340990;22;20006;-94
2023/06/02 01:33:28;;;;;;;12.80;2.70;;;;;;;;;;6342204;22;20466;-93
2023/06/02 01:35:57;;;;;;;19.00;3.13;;;;;;;;;;6340429;22;20006;-94
2023/06/02 01:38:26;;;;;;;23.48;3.28;;;;;;;;;;6314829;22;20085;-94
2023/06/02 01:40:54;;;;;;;18.60;2.78;;;;;;;;;;6315993;22;20014;-94
2023/06/02 01:43:21;;;;;;;20.65;3.15;;;;;;;;;;6342362;22;20046;-93
2023/06/02 01:45:51;;;;;;;24.58;2.72;;;;;;;;;;6314598;22;20006;-95
2023/06/02 01:48:17;;;;;;;14.32;3.47;;;;;;;;;;6315914;22;20299;-94
2023/06/02 01:50:44;;;;;;;13.85;2.72;;;;;;;;;;6316854;22;20010;-93
2023/06/02 01:53:10;;;;;;;17.15;4.28;;;;;;;;;;6316130;22;20017;-94
2023/06/02 01:55:37;;;;;;;19.05;3.20;;;;;;;;;;6340697;22;20010;-93
2023/06/02 01:58:03;;;;;;;16.80;2.35;;;;;;;;;;6316198;22;20010;-93
2023/06/02 02:00:31;;;;;;;27.48;3.22;;;;;;;;;;6341092;22;19983;-94
2023/06/02 02:02:57;;;;;;;14.80;3.20;;;;;;;;;;6369105;22;20430;-94
2023/06/02 02:05:26;;;;;;;20.70;2.50;;;;;;;;;;6316432;22;20014;-94
2023/06/02 02:07:56;;;;;;;17.50;2.67;;;;;;;;;;6316922;22;20713;-93
2023/06/02 02:10:22;;;;;;;16.23;2.50;;;;;;;;;;6314919;22;20002;-94
2023/06/02 02:12:48;;;;;;;20.77;3.40;;;;;;;;;;6312232;22;20010;-93
2023/06/02 02:15:18;;;;;;;16.67;2.60;;;;;;;;;;6315462;22;20010;-92
2023/06/02 02:17:45;;;;;;;20.83;3.10;;;;;;;;;;6341286;22;20010;-94
2023/06/02 02:20:16;;;;;;;17.73;2.97;;;;;;;;;;6316487;22;20462;-94
2023/06/02 02:22:47;;;;;;;20.85;3.97;;;;;;;;;;6341374;22;20006;-94
2023/06/02 02:25:22;;;;;;;22.60;5.68;;;;;;;;;;6341576;22;20010;-93
2023/06/02 02:27:49;;;;;;;26.92;3.08;;;;;;;;;;6340827;22;20006;-94
2023/06/02 02:30:16;;;;;;;19.92;3.20;;;;;;;;;;6314720;22;20006;-94
2023/06/02 02:32:46;;;;;;;27.10;3.47;;;;;;;;;;6314715;22;20106;-94
2023/06/02 02:35:13;;;;;;;18.88;2.72;;;;;;;;;;6342668;22;20010;-94
2023/06/02 02:37:39;;;;;;;16.45;3.88;;;;;;;;;;6315555;22;20007;-94
2023/06/02 02:40:06;;;;;;;18.63;2.63;;;;;;;;;;6340957;22;20007;-95
2023/06/02 02:42:35;;;;;;;15.52;2.80;;;;;;;;;;6341587;22;20022;-93
2023/06/02 02:45:02;;;;;;;19.75;2.67;;;;;;;;;;6284321;22;20018;-91
2023/06/02 02:47:35;;;;;;;17.08;3.35;;;;;;;;;;6285201;22;20797;-93
2023/06/02 02:50:02;;;;;;;20.23;3.08;;;;;;;;;;6284170;22;20010;-93
2023/06/02 02:52:28;;;;;;;18.55;2.70;;;;;;;;;;6285732;22;20006;-94
2023/06/02 02:54:55;;;;;;;16.02;2.85;;;;;;;;;;6310718;22;20006;-94
2023/06/02 02:57:23;;;;;;;11.40;2.75;;;;;;;;;;6310658;22;20447;-94
2023/06/02 02:59:50;;;;;;;18.75;3.67;;;;;;;;;;6285512;22;20014;-94
2023/06/02 03:02:16;;;;;;;19.63;3.10;;;;;;;;;;6311691;22;20007;-94
2023/06/02 03:04:46;;;;;;;18.98;3.53;;;;;;;;;;6283397;22;20094;-94
2023/06/02 03:07:12;;;;;;;21.10;3.78;;;;;;;;;;6308732;22;20450;-94
2023/06/02 03:09:38;;;;;;;13.45;2.78;;;;;;;;;;6284585;22;20007;-94
2023/06/02 03:12:05;;;;;;;16.77;2.80;;;;;;;;;;6283725;22;20094;-94
2023/06/02 03:14:31;;;;;;;16.02;3.10;;;;;;;;;;6284031;22;20105;-93
2023/06/02 03:16:58;;;;;;;28.10;3.97;;;;;;;;;;6284877;22;20459;-93
2023/06/02 03:19:26;;;;;;;17.88;3.25;;;;;;;;;;6310529;22;20010;-94
2023/06/02 03:21:56;;;;;;;15.50;3.22;;;;;;;;;;6286587;22;20420;-94
2023/06/02 03:24:22;;;;;;;17.80;3.20;;;;;;;;;;6312539;22;20010;-93
2023/06/02 03:26:51;;;;;;;21.25;3.40;;;;;;;;;;6314281;22;20003;-94
2023/06/02 03:29:19;;;;;;;17.65;2.97;;;;;;;;;;6312313;22;20609;-93
2023/06/02 03:31:45;;;;;;;14.52;3.00;;;;;;;;;;6313990;22;20003;-94
2023/06/02 03:34:12;;;;;;;18.55;2.63;;;;;;;;;;6286846;22;20011;-94
2023/06/02 03:36:39;;;;;;;17.13;3.22;;;;;;;;;;6286842;22;20028;-94
2023/06/02 03:39:06;;;;;;;24.23;3.42;;;;;;;;;;6338514;22;19999;-94
2023/06/02 03:41:33;;;;;;;21.63;3.13;;;;;;;;;;6312694;22;20018;-93
2023/06/02 03:43:59;;;;;;;38.45;7.28;;;;;;;;;;6332203;22;20021;-93
2023/06/02 03:46:26;;;;;;;16.70;2.92;;;;;;;;;;6343066;22;20051;-94
2023/06/02 03:48:52;;;;;;;25.45;3.58;;;;;;;;;;6316779;22;20006;-94
2023/06/02 03:51:18;;;;;;;15.15;3.63;;;;;;;;;;6315027;22;20009;-94
2023/06/02 03:53:45;;;;;;;26.15;3.67;;;;;;;;;;6341090;22;20002;-94
2023/06/02 03:56:12;;;;;;;29.88;5.95;;;;;;;;;;6314620;22;20030;-94
2023/06/02 03:58:38;;;;;;;15.88;3.03;;;;;;;;;;6314559;22;20071;-94
2023/06/02 04:01:07;;;;;;;14.32;3.05;;;;;;;;;;6313537;22;20499;-93
2023/06/02 04:03:57;;;;;;;20.92;2.90;;;;;;;;;;6315174;22;20015;-94
2023/06/02 04:06:21;;;;;;;18.50;3.15;;;;;;;;;;6364891;22;20109;-94
2023/06/02 04:08:47;;;;;;;25.52;3.40;;;;;;;;;;6338977;22;20423;-94
2023/06/02 04:11:14;;;;;;;24.13;3.42;;;;;;;;;;6341458;22;20439;-94
2023/06/02 04:13:49;;;;;;;35.13;3.72;;;;;;;;;;6340148;22;20002;-94
2023/06/02 04:16:16;;;;;;;21.60;3.42;;;;;;;;;;6316255;22;20014;-93
2023/06/02 04:18:43;;;;;;;19.88;3.53;;;;;;;;;;6315206;22;20574;-93
2023/06/02 04:21:09;;;;;;;24.60;3.22;;;;;;;;;;6314329;22;20431;-94
2023/06/02 04:23:36;;;;;;;18.08;3.72;;;;;;;;;;6317526;22;20033;-93
2023/06/02 04:26:02;;;;;;;23.48;3.42;;;;;;;;;;6314882;22;20388;-93
2023/06/02 04:28:29;;;;;;;20.58;4.15;;;;;;;;;;6342131;22;20021;-93
2023/06/02 04:30:56;;;;;;;29.17;3.88;;;;;;;;;;6313551;22;20006;-93
2023/06/02 04:33:23;;;;;;;17.42;4.95;;;;;;;;;;6341834;22;19998;-94
2023/06/02 04:35:50;;;;;;;26.58;5.03;;;;;;;;;;6341138;22;20002;-94
2023/06/02 04:38:16;;;;;;;32.13;4.68;;;;;;;;;;6316614;22;20034;-93
2023/06/02 04:40:42;;;;;;;18.65;3.85;;;;;;;;;;6314813;22;20006;-93
2023/06/02 04:43:12;;;;;;;29.45;4.05;;;;;;;;;;6318599;22;20068;-93
2023/06/02 04:45:43;;;;;;;22.63;4.20;;;;;;;;;;6341018;22;20339;-93
2023/06/02 04:48:11;;;;;;;13.13;3.20;;;;;;;;;;6317587;22;20192;-94
2023/06/02 04:50:37;;;;;;;19.83;3.13;;;;;;;;;;6317005;22;20074;-93
2023/06/02 04:53:04;;;;;;;20.67;3.53;;;;;;;;;;6315969;22;20373;-92
2023/06/02 04:55:30;;;;;;;26.17;4.40;;;;;;;;;;6316028;22;20068;-92
2023/06/02 04:57:56;;;;;;;22.38;4.43;;;;;;;;;;6316768;22;20344;-92
2023/06/02 05:00:23;;;;;;;24.05;5.18;;;;;;;;;;6316007;22;20445;-91
2023/06/02 05:02:50;;;;;;;26.13;3.80;;;;;;;;;;6314759;22;20014;-90
2023/06/02 05:05:29;;;;;;;23.75;3.53;;;;;;;;;;6340969;22;20031;-91
2023/06/02 05:07:58;;;;;;;30.27;3.58;;;;;;;;;;6344263;22;20002;-92
2023/06/02 05:10:25;;;;;;;19.73;3.38;;;;;;;;;;6318244;22;20013;-92
2023/06/02 05:12:53;;;;;;;31.05;4.00;;;;;;;;;;6339866;22;20115;-91
2023/06/02 05:15:20;;;;;;;23.38;3.83;;;;;;;;;;6316400;22;20010;-91
2023/06/02 05:17:46;;;;;;;22.05;4.10;;;;;;;;;;6343679;22;20018;-91
2023/06/02 05:20:12;;;;;;;17.77;3.47;;;;;;;;;;6316032;22;20034;-92
2023/06/02 05:22:39;;;;;;;19.13;3.58;;;;;;;;;;6342100;22;20455;-92
2023/06/02 05:25:06;;;;;;;25.77;4.95;;;;;;;;;;6317994;22;20101;-92
2023/06/02 05:27:32;;;;;;;16.75;3.28;;;;;;;;;;6317354;22;20014;-91
2023/06/02 05:29:59;;;;;;;27.73;4.00;;;;;;;;;;6316771;22;20013;-92
2023/06/02 05:32:25;;;;;;;23.48;5.10;;;;;;;;;;6316599;22;20438;-90
2023/06/02 05:34:52;;;;;;;22.20;4.55;;;;;;;;;;6317815;22;20121;-90
2023/06/02 05:37:18;;;;;;;37.60;4.78;;;;;;;;;;6317301;22;20629;-91
2023/06/02 05:39:46;;;;;;;36.28;4.32;;;;;;;;;;6344818;22;20006;-91
2023/06/02 05:42:19;;;;;;;21.65;4.22;;;;;;;;;;6343744;22;20105;-92
2023/06/02 05:44:45;;;;;;;24.52;6.28;;;;;;;;;;6323008;22;20097;-91
2023/06/02 05:47:11;;;;;;;28.05;5.47;;;;;;;;;;6317108;22;20106;-92
2023/06/02 05:49:37;;;;;;;20.20;4.32;;;;;;;;;;6321309;22;20352;-92
2023/06/02 05:52:05;;;;;;;27.35;5.00;;;;;;;;;;6316825;22;20010;-92
2023/06/02 05:54:34;;;;;;;22.95;4.60;;;;;;;;;;6316688;22;20067;-92
2023/06/02 05:57:01;;;;;;;24.40;5.10;;;;;;;;;;6317541;22;20041;-92
2023/06/02 05:59:28;;;;;;;28.10;3.65;;;;;;;;;;6317506;22;20018;-92
2023/06/02 06:01:54;;;;;;;28.13;4.97;;;;;;;;;;6318338;22;20007;-91
2023/06/02 06:04:21;;;;;;;27.15;5.85;;;;;;;;;;6317872;22;20544;-91
2023/06/02 06:06:54;;;;;;;31.55;4.25;;;;;;;;;;6319551;22;20006;-91
2023/06/02 06:09:23;;;;;;;26.88;5.80;;;;;;;;;;6317474;22;20049;-92
2023/06/02 06:11:50;;;;;;;18.33;3.40;;;;;;;;;;6343373;22;20423;-91
2023/06/02 06:14:21;;;;;;;21.00;4.35;;;;;;;;;;6316345;22;20006;-92
2023/06/02 06:16:48;;;;;;;26.05;4.32;;;;;;;;;;6317753;22;20007;-91
2023/06/02 06:19:18;;;;;;;23.90;4.50;;;;;;;;;;6314473;22;20067;-89
2023/06/02 06:21:44;;;;;;;42.67;5.80;;;;;;;;;;6316528;22;20007;-92
2023/06/02 06:24:10;;;;;;;21.58;4.78;;;;;;;;;;6340935;22;20013;-91
2023/06/02 06:26:36;;;;;;;29.27;4.85;;;;;;;;;;6316399;22;20006;-91
2023/06/02 06:29:03;;;;;;;25.42;4.30;;;;;;;;;;6313161;22;20002;-92
2023/06/02 06:31:32;;;;;;;25.50;4.55;;;;;;;;;;6339047;22;20006;-92
2023/06/02 06:33:59;;;;;;;30.77;4.90;;;;;;;;;;6312858;22;20003;-91
2023/06/02 06:36:26;;;;;;;36.60;5.15;;;;;;;;;;6340144;22;20018;-91
2023/06/02 06:38:56;;;;;;;27.15;4.30;;;;;;;;;;6339639;22;20024;-92
2023/06/02 06:41:22;;;;;;;27.48;4.90;;;;;;;;;;6314634;22;20036;-91
2023/06/02 06:43:49;;;;;;;22.83;3.92;;;;;;;;;;6315283;22;20455;-91
2023/06/02 06:46:15;;;;;;;24.45;4.13;;;;;;;;;;6314448;22;20347;-93
2023/06/02 06:48:42;;;;;;;23.00;4.68;;;;;;;;;;6313803;22;20440;-92
2023/06/02 06:51:08;;;;;;;25.67;4.50;;;;;;;;;;6341650;22;20041;-91
2023/06/02 06:53:34;;;;;;;29.88;4.70;;;;;;;;;;6313755;22;20022;-91
2023/06/02 06:56:02;;;;;;;25.27;4.90;;;;;;;;;;6315204;22;20010;-93
2023/06/02 06:58:29;;;;;;;17.60;3.65;;;;;;;;;;6339665;22;20006;-93
2023/06/02 07:01:01;;;;;;;27.48;3.22;;;;;;;;;;6314946;22;20462;-92
2023/06/02 07:03:28;;;;;;;21.25;3.65;;;;;;;;;;6340958;22;20014;-92
2023/06/02 07:05:55;;;;;;;24.90;3.30;;;;;;;;;;6315970;22;20431;-92
2023/06/02 07:08:21;;;;;;;23.90;5.45;;;;;;;;;;6315175;22;20011;-92
2023/06/02 07:10:50;;;;;;;23.15;3.28;;;;;;;;;;6314786;22;20022;-91
2023/06/02 07:13:18;;;;;;;9.90;3.33;;;;;;;;;;6315474;22;20006;-93
2023/06/02 07:15:54;;;;;;;16.35;4.07;;;;;;;;;;6315005;22;20066;-92
2023/06/02 07:18:20;;;;;;;;;;;;;;;;;;6319020;22;20011;-92
2023/06/02 07:20:46;;;;;;;13.85;3.38;;;;;;;;;;6341302;22;19898;-91
2023/06/02 07:23:13;;;;;;;17.80;3.15;;;;;;;;;;6316572;22;20010;-92
2023/06/02 07:25:39;;;;;;;19.00;3.28;;;;;;;;;;6342958;22;20451;-92
2023/06/02 07:28:06;;;;;;;18.80;3.85;;;;;;;;;;6319748;22;20002;-93
2023/06/02 07:30:57;;;;;;;13.27;3.17;;;;;;;;;;6318924;22;20006;-92
2023/06/02 07:33:22;;;;;;;18.27;2.75;;;;;;;;;;6349722;22;20098;-92
2023/06/02 07:35:48;;;;;;;18.80;3.78;;;;;;;;;;6345075;22;20435;-93
2023/06/02 07:38:15;;;;;;;21.40;2.83;;;;;;;;;;6349050;22;20006;-92
2023/06/02 07:40:41;;;;;;;20.05;3.17;;;;;;;;;;6347785;22;20013;-90
2023/06/02 07:43:07;;;;;;;13.70;2.60;;;;;;;;;;6322218;22;20022;-89
2023/06/02 07:45:34;;;;;;;10.50;2.25;;;;;;;;;;6287469;22;20006;-92
2023/06/02 07:48:01;;;;;;;12.25;2.33;;;;;;;;;;6286889;22;20029;-92
2023/06/02 07:50:27;;;;;;;9.45;2.15;;;;;;;;;;6285241;22;20071;-92
2023/06/02 07:53:06;;;;;;;15.20;3.35;;;;;;;;;;6310557;22;20492;-93
2023/06/02 07:55:33;;;;;;;10.20;3.10;;;;;;;;;;6283660;22;20080;-92
2023/06/02 07:57:59;;;;;;;9.77;2.00;;;;;;;;;;6308800;22;20011;-92
2023/06/02 08:00:25;;;;;;;6.97;1.75;;;;;;;;;;6308480;22;20017;-93
2023/06/02 08:02:52;;;;;;;6.43;1.63;;;;;;;;;;6284925;22;20526;-92
2023/06/02 08:05:19;;;;;;;5.25;1.45;;;;;;;;;;6308916;22;20067;-92
2023/06/02 08:07:52;;;;;;;5.55;1.45;;;;;;;;;;6309616;22;20003;-92
2023/06/02 08:10:18;;;;;;;5.68;1.70;;;;;;;;;;6309308;22;20002;-92
2023/06/02 08:12:51;;;;;;;6.78;1.52;;;;;;;;;;6307394;22;19999;-93
2023/06/02 08:15:17;;;;;;;3.92;1.55;;;;;;;;;;6283124;22;20014;-92
2023/06/02 08:17:43;;;;;;;4.50;1.40;;;;;;;;;;6283246;22;20003;-92
2023/06/02 08:20:10;;;;;;;10.63;1.10;;;;;;;;;;6283324;22;20022;-92
2023/06/02 08:22:41;;;;;;;4.72;1.58;;;;;;;;;;6283100;22;20440;-92
2023/06/02 08:25:08;;;;;;;5.18;1.50;;;;;;;;;;6283797;22;20006;-92
2023/06/02 08:27:36;;;;;;;4.68;1.35;;;;;;;;;;6308350;22;20003;-93
2023/06/02 08:30:07;;;;;;;10.60;1.50;;;;;;;;;;6312565;22;20010;-93
2023/06/02 08:32:33;;;;;;;4.70;1.52;;;;;;;;;;6308139;22;20098;-92
2023/06/02 08:35:02;;;;;;;4.95;1.60;;;;;;;;;;6283630;22;20014;-92
2023/06/02 08:37:32;;;;;;;9.20;1.40;;;;;;;;;;6283336;22;20024;-92
2023/06/02 08:39:58;;;;;;;4.15;1.90;;;;;;;;;;6284288;22;20014;-92
2023/06/02 08:42:34;;;;;;;6.78;1.58;;;;;;;;;;6310325;22;20100;-92
2023/06/02 08:45:00;;;;;;;5.18;1.40;;;;;;;;;;6309028;22;20545;-93
2023/06/02 08:47:30;;;;;;;7.03;2.22;;;;;;;;;;6321269;22;20007;-92
2023/06/02 08:50:05;;;;;;;4.47;1.52;;;;;;;;;;6349692;22;20277;-92
2023/06/02 08:52:32;;;;;;;4.07;1.70;;;;;;;;;;6379852;22;20025;-93
2023/06/02 08:54:58;;;;;;;5.78;1.38;;;;;;;;;;6322353;22;20007;-94
2023/06/02 09:00:15;;;;;;;8.52;1.70;;;;;;;;;;6341979;22;20067;-94
2023/06/02 09:02:54;;;;;;;5.43;1.50;;;;;;;;;;6345981;22;20406;-93
2023/06/02 09:08:31;;;;;;;8.73;1.98;;;;;;;;;;6324108;22;20028;-94
2023/06/02 09:11:16;;;;;;;8.55;1.88;;;;;;;;;;6348363;22;20336;-93
2023/06/02 09:13:49;;;;;;;5.43;1.58;;;;;;;;;;6318108;22;20039;-94
2023/06/02 09:16:22;;;;;;;3.50;1.60;;;;;;;;;;6317971;22;20476;-93
2023/06/02 09:19:01;;;;;;;3.60;1.38;;;;;;;;;;6320681;22;20341;-94
2023/06/02 09:21:29;;;;;;;7.80;1.45;;;;;;;;;;6344502;22;20010;-93
2023/06/02 09:24:02;;;;;;;3.95;1.73;;;;;;;;;;6343622;22;20016;-94
2023/06/02 09:26:32;;;;;;;5.57;1.42;;;;;;;;;;6316697;22;20014;-94
2023/06/02 09:29:18;;;;;;;2.97;1.73;;;;;;;;;;6370511;22;20347;-93
2023/06/02 09:31:52;;;;;;;6.13;1.40;;;;;;;;;;6343519;22;20195;-92
2023/06/02 09:34:51;;;;;;;6.72;2.10;;;;;;;;;;6342815;22;20025;-93
2023/06/02 09:37:26;;;;;;;6.22;1.67;;;;;;;;;;6364609;22;20002;-93
2023/06/02 09:40:03;;;;;;;5.95;1.65;;;;;;;;;;6319836;22;20006;-93
2023/06/02 09:42:43;;;;;;;8.57;1.70;;;;;;;;;;6320108;22;20083;-92
2023/06/02 09:45:11;;;;;;;5.75;1.50;;;;;;;;;;6344586;22;20044;-94
2023/06/02 09:47:43;;;;;;;2.35;1.50;;;;;;;;;;6370545;22;20002;-93
2023/06/02 09:50:11;;;;;;;2.17;1.58;;;;;;;;;;6318904;22;20327;-93
2023/06/02 09:52:37;;;;;;;8.40;1.42;;;;;;;;;;6318244;22;20014;-93
2023/06/02 09:55:05;;;;;;;2.72;1.38;;;;;;;;;;6315863;22;20003;-93
2023/06/02 09:57:31;;;;;;;4.32;1.55;;;;;;;;;;6320551;22;20056;-93
2023/06/02 10:00:03;;;;;;;9.95;1.40;;;;;;;;;;6317699;22;20006;-93
2023/06/02 10:02:47;;;;;;;7.03;1.50;;;;;;;;;;6346640;22;20002;-93
2023/06/02 10:05:20;;;;;;;2.17;1.40;;;;;;;;;;6322989;22;20011;-92
2023/06/02 10:07:56;;;;;;;3.60;1.50;;;;;;;;;;6342850;22;20007;-92
2023/06/02 10:10:39;;;;;;;4.18;1.60;;;;;;;;;;6345353;22;19999;-92
2023/06/02 10:13:14;;;;;;;6.18;1.40;;;;;;;;;;6341776;22;20055;-93
2023/06/02 10:16:06;;;;;;;2.30;1.25;;;;;;;;;;6343947;22;20007;-94
2023/06/02 10:18:51;;;;;;;5.75;1.60;;;;;;;;;;6343565;22;20014;-92
2023/06/02 10:21:32;;;;;;;3.23;1.43;;;;;;;;;;6342476;22;20390;-93
2023/06/02 10:24:27;;;;;;;8.75;1.40;;;;;;;;;;6372813;22;20058;-93
2023/06/02 10:27:10;;;;;;;7.07;1.55;;;;;;;;;;6344363;22;20002;-94
2023/06/02 10:29:39;;;;;;;3.17;1.60;;;;;;;;;;6344751;22;20002;-92
2023/06/02 10:32:27;;;;;;;5.90;1.30;;;;;;;;;;6345373;22;20010;-93
2023/06/02 10:35:13;;;;;;;5.28;1.30;;;;;;;;;;6343686;22;20017;-93
2023/06/02 10:38:14;;;;;;;4.15;1.40;;;;;;;;;;6373462;22;20127;-94
2023/06/02 10:40:52;;;;;;;2.33;1.08;;;;;;;;;;6323799;22;20029;-94
2023/06/02 10:43:23;;;;;;;4.93;1.20;;;;;;;;;;6348697;22;20076;-93
2023/06/02 10:45:55;;;;;;;8.63;2.03;;;;;;;;;;6320520;22;20109;-93
2023/06/02 10:48:58;;;;;;;4.90;1.58;;;;;;;;;;6321055;22;20059;-93
2023/06/02 10:51:35;;;;;;;6.03;1.85;;;;;;;;;;6345930;22;20010;-93
2023/06/02 10:54:04;;;;;;;5.22;1.90;;;;;;;;;;6323194;22;20032;-93
2023/06/02 10:56:39;;;;;;;7.45;1.70;;;;;;;;;;6343741;22;20002;-92
2023/06/02 10:59:10;;;;;;;3.65;2.22;;;;;;;;;;6346771;22;20030;-93
2023/06/02 11:01:54;;;;;;;6.97;2.08;;;;;;;;;;6345631;22;20009;-93
2023/06/02 11:04:28;;;;;;;5.88;1.95;;;;;;;;;;6343050;22;20075;-93
2023/06/02 11:10:06;;;;;;;14.63;2.28;;;;;;;;;;6292542;22;20057;-94
2023/06/02 11:13:00;;;;;;;10.35;2.50;;;;;;;;;;6263363;22;20054;-94
2023/06/02 11:15:26;;;;;;;8.63;1.92;;;;;;;;;;6330815;22;20003;-92
2023/06/02 11:17:55;;;;;;;14.77;1.83;;;;;;;;;;6325961;22;20032;-93
2023/06/02 11:20:35;;;;;;;8.98;2.28;;;;;;;;;;6318779;22;20040;-94
2023/06/02 11:23:06;;;;;;;11.63;2.17;;;;;;;;;;6321793;22;20082;-92
2023/06/02 11:25:32;;;;;;;8.90;1.85;;;;;;;;;;6353775;22;20010;-94
2023/06/02 11:27:58;;;;;;;14.75;2.80;;;;;;;;;;6325841;22;20006;-93
2023/06/02 11:30:26;;;;;;;4.85;1.95;;;;;;;;;;6322028;22;20064;-94
2023/06/02 11:33:00;;;;;;;7.72;2.40;;;;;;;;;;6321242;22;20007;-92
2023/06/02 11:35:30;;;;;;;8.23;2.93;;;;;;;;;;6322155;22;20085;-93
2023/06/02 11:38:06;;;;;;;12.73;2.33;;;;;;;;;;6349136;22;20260;-93
2023/06/02 11:40:53;;;;;;;8.18;2.42;;;;;;;;;;6348690;22;20085;-93
2023/06/02 11:43:22;;;;;;;6.88;2.30;;;;;;;;;;6352908;22;20010;-93
2023/06/02 11:45:48;;;;;;;6.07;2.50;;;;;;;;;;6324521;22;20399;-92
2023/06/02 11:48:15;;;;;;;8.60;2.03;;;;;;;;;;6347127;22;19994;-92
2023/06/02 11:50:54;;;;;;;6.70;2.38;;;;;;;;;;6346948;22;20010;-92
2023/06/02 11:53:23;;;;;;;10.85;2.15;;;;;;;;;;6348577;22;19998;-91
2023/06/02 11:58:53;;;;;;;6.03;2.10;;;;;;;;;;6349476;22;20537;-92
2023/06/02 12:01:40;;;;;;;;;;;;;;;;;;;;;
2023/06/02 12:04:12;;;;;;;5.78;2.70;;;;;;;;;;6352658;22;20026;-92
2023/06/02 12:06:54;;;;;;;5.78;2.13;;;;;;;;;;6346912;22;20025;-92
2023/06/02 12:09:29;;;;;;;6.20;2.47;;;;;;;;;;6343425;22;20250;-92
2023/06/02 12:12:08;;;;;;;9.60;2.40;;;;;;;;;;6345014;22;20429;-92
2023/06/02 12:14:50;;;;;;;8.05;2.25;;;;;;;;;;6342641;22;20407;-92
2023/06/02 12:17:17;;;;;;;7.57;2.58;;;;;;;;;;6320304;22;20006;-93
2023/06/02 12:19:43;;;;;;;11.52;3.53;;;;;;;;;;6319114;22;20003;-93
2023/06/02 12:22:20;;;;;;;10.15;2.85;;;;;;;;;;6321319;22;20021;-92
2023/06/02 12:24:49;;;;;;;11.13;3.58;;;;;;;;;;6318914;22;20013;-92
2023/06/02 12:27:26;;;;;;;12.35;2.90;;;;;;;;;;6370546;22;20003;-92
2023/06/02 12:29:53;;;;;;;;;;;;;;;;;;6319683;22;20013;-93
2023/06/02 12:32:27;;;;;;;9.18;2.88;;;;;;;;;;6349996;22;20367;-93
2023/06/02 12:34:53;;;;;;;10.85;3.13;;;;;;;;;;6352174;22;20002;-92
2023/06/02 12:37:23;;;;;;;9.43;2.45;;;;;;;;;;6320780;22;20010;-93
2023/06/02 12:39:51;;;;;;;12.52;3.33;;;;;;;;;;6349521;22;20013;-93
2023/06/02 12:42:20;;;;;;;10.45;3.22;;;;;;;;;;6350325;22;20032;-93
2023/06/02 12:44:54;;;;;;;12.55;3.65;;;;;;;;;;6355843;22;20023;-94
2023/06/02 12:47:21;;;;;;;12.07;3.60;;;;;;;;;;6328209;22;20007;-93
2023/06/02 12:49:58;;;;;;;9.55;2.53;;;;;;;;;;6329667;22;20388;-92
2023/06/02 12:52:27;;;;;;;8.02;2.92;;;;;;;;;;6352011;22;20006;-94
2023/06/02 12:55:06;;;;;;;10.15;3.05;;;;;;;;;;6321132;22;20006;-93
2023/06/02 12:57:56;;;;;;;11.68;2.67;;;;;;;;;;6328878;22;20405;-93
2023/06/02 13:00:23;;;;;;;12.68;3.13;;;;;;;;;;6189019;23;20029;-93
2023/06/02 13:05:38;;;;;;;9.50;3.13;;;;;;;;;;6322979;22;20115;-92
2023/06/02 13:08:04;;;;;;;11.25;2.50;;;;;;;;;;6347328;22;20077;-93
2023/06/02 13:10:35;;;;;;;7.47;2.88;;;;;;;;;;6345682;22;20002;-92
2023/06/02 13:13:04;;;;;;;8.35;2.65;;;;;;;;;;6370251;22;20453;-93
2023/06/02 13:15:33;;;;;;;10.00;2.70;;;;;;;;;;6373173;22;20012;-93
2023/06/02 13:20:46;;;;;;;7.68;2.97;;;;;;;;;;6338493;22;20083;-93
2023/06/02 13:23:13;;;;;;;5.57;2.92;;;;;;;;;;6319241;22;20010;-92
2023/06/02 13:25:42;;;;;;;11.32;3.35;;;;;;;;;;6315262;22;20491;-93
2023/06/02 13:28:08;;;;;;;9.05;3.10;;;;;;;;;;6345997;22;20085;-93
2023/06/02 13:30:35;;;;;;;10.23;3.10;;;;;;;;;;6345300;22;20367;-93
2023/06/02 13:33:02;;;;;;;8.57;2.95;;;;;;;;;;6345152;22;20447;-92
2023/06/02 13:35:30;;;;;;;4.93;2.63;;;;;;;;;;6315137;22;20447;-93
2023/06/02 13:37:56;;;;;;;10.63;4.07;;;;;;;;;;6343930;22;20009;-93
2023/06/02 13:40:33;;;;;;;;;;;;;;;;;;;;;
2023/06/02 13:42:59;;;;;;;7.88;3.95;;;;;;;;;;6371393;22;20089;-93
2023/06/02 13:45:34;;;;;;;10.85;3.45;;;;;;;;;;6323539;22;20319;-92
2023/06/02 13:48:03;;;;;;;9.95;3.25;;;;;;;;;;6320384;22;20446;-92
2023/06/02 13:50:30;;;;;;;11.60;3.80;;;;;;;;;;6316006;22;20003;-92
2023/06/02 13:52:56;;;;;;;12.82;3.78;;;;;;;;;;6374952;22;20427;-91
2023/06/02 13:55:22;;;;;;;9.48;3.20;;;;;;;;;;6324867;22;20014;-92
2023/06/02 13:57:48;;;;;;;12.73;3.05;;;;;;;;;;6319205;22;20435;-94
2023/06/02 14:00:18;;;;;;;6.28;2.65;;;;;;;;;;6318145;22;20494;-92
2023/06/02 14:02:44;;;;;;;13.05;3.55;;;;;;;;;;6341595;22;20007;-92
2023/06/02 14:05:10;;;;;;;7.00;3.50;;;;;;;;;;6317009;22;20025;-93
2023/06/02 14:07:40;;;;;;;9.75;3.35;;;;;;;;;;6319789;22;20009;-93
2023/06/02 14:10:07;;;;;;;7.13;3.00;;;;;;;;;;6316181;22;20057;-93
2023/06/02 14:12:33;;;;;;;7.97;2.97;;;;;;;;;;6343097;22;20051;-93
2023/06/02 14:15:08;;;;;;;6.97;2.70;;;;;;;;;;6316151;22;20014;-93
2023/06/02 14:17:38;;;;;;;12.55;2.97;;;;;;;;;;6347224;22;20018;-94
2023/06/02 14:20:08;;;;;;;7.88;2.95;;;;;;;;;;6316164;22;20032;-93
2023/06/02 14:23:02;;;;;;;10.07;3.08;;;;;;;;;;6315957;22;20030;-91
2023/06/02 14:25:28;;;;;;;7.18;3.88;;;;;;;;;;6337956;22;20479;-91
2023/06/02 14:27:54;;;;;;;10.40;2.95;;;;;;;;;;6315560;22;20423;-92
2023/06/02 14:30:24;;;;;;;11.52;3.72;;;;;;;;;;6341428;22;19998;-93
2023/06/02 14:32:51;;;;;;;12.48;3.42;;;;;;;;;;6339825;22;20328;-93
2023/06/02 14:35:24;;;;;;;9.23;3.10;;;;;;;;;;6314676;22;20012;-93
2023/06/02 14:37:53;;;;;;;8.30;2.65;;;;;;;;;;6341926;22;20013;-92
2023/06/02 14:40:20;;;;;;;11.40;2.90;;;;;;;;;;6340031;22;20009;-93
2023/06/02 14:42:46;;;;;;;12.30;2.65;;;;;;;;;;6341380;22;20030;-93
2023/06/02 14:45:12;;;;;;;7.50;4.07;;;;;;;;;;6316302;22;20495;-93
2023/06/02 14:47:39;;;;;;;6.40;2.92;;;;;;;;;;6341562;22;20006;-93
2023/06/02 14:50:06;;;;;;;12.48;3.17;;;;;;;;;;6340362;22;20006;-92
2023/06/02 14:52:33;;;;;;;11.02;2.70;;;;;;;;;;6342168;22;20002;-92
2023/06/02 14:55:02;;;;;;;7.32;2.50;;;;;;;;;;6339778;22;20347;-93
2023/06/02 14:57:31;;;;;;;9.73;3.67;;;;;;;;;;6315337;22;20025;-92
2023/06/02 15:00:25;;;;;;;10.40;2.50;;;;;;;;;;6313856;22;20018;-93
2023/06/02 15:02:51;;;;;;;6.47;2.80;;;;;;;;;;6340435;22;20374;-93
2023/06/02 15:05:18;;;;;;;8.23;2.33;;;;;;;;;;6341024;22;20341;-92
2023/06/02 15:07:55;;;;;;;7.55;2.45;;;;;;;;;;6315473;22;20491;-92
2023/06/02 15:10:23;;;;;;;5.45;2.50;;;;;;;;;;6318135;22;20416;-92
2023/06/02 15:12:49;;;;;;;8.23;2.28;;;;;;;;;;6339293;22;20021;-93